createdAt,value
2018-12-08T00:01:11.171Z,101399.61
2018-12-08T00:04:14.665Z,101404.55
2018-12-08T00:07:18.106Z,101414.81
2018-12-08T00:10:21.592Z,101412.00
2018-12-08T00:13:25.088Z,101420.07
2018-12-08T00:16:28.473Z,101429.77
2018-12-08T00:19:32.016Z,101429.13
2018-12-08T00:22:35.589Z,101432.25
2018-12-08T00:25:39.071Z,101431.17
2018-12-08T00:28:42.646Z,101436.51
2018-12-08T00:31:46.967Z,101431.53
2018-12-08T00:34:50.528Z,101435.65
2018-12-08T00:37:53.926Z,101439.99
2018-12-08T00:40:57.481Z,101439.09
2018-12-08T00:44:01.072Z,101442.67
2018-12-08T00:47:04.596Z,101456.44
2018-12-08T00:50:09.946Z,101473.53
2018-12-08T00:53:13.426Z,101476.59
2018-12-08T00:56:16.941Z,101466.82
2018-12-08T00:59:20.512Z,101473.48
2018-12-08T01:02:24.000Z,101482.07
2018-12-08T01:05:27.682Z,101484.52
2018-12-08T01:08:31.194Z,101485.14
2018-12-08T01:11:34.687Z,101487.52
2018-12-08T01:14:38.180Z,101484.53
2018-12-08T01:17:42.991Z,101480.43
2018-12-08T01:20:46.553Z,101472.49
2018-12-08T01:23:50.068Z,101470.45
2018-12-08T01:26:53.608Z,101475.65
2018-12-08T01:29:57.206Z,101482.58
2018-12-08T01:33:00.908Z,101481.02
2018-12-08T01:36:04.529Z,101475.46
2018-12-08T01:39:08.484Z,101478.33
2018-12-08T01:42:12.044Z,101481.29
2018-12-08T01:45:15.647Z,101484.25
2018-12-08T01:48:19.369Z,101492.50
2018-12-08T01:51:23.017Z,101496.63
2018-12-08T01:54:26.500Z,101505.66
2018-12-08T01:57:30.285Z,101495.02
2018-12-08T02:00:34.332Z,101495.91
2018-12-08T02:03:37.921Z,101494.45
2018-12-08T02:06:41.612Z,101491.72
2018-12-08T02:09:45.244Z,101494.56
2018-12-08T02:12:48.852Z,101487.22
2018-12-08T02:15:52.469Z,101492.19
2018-12-08T02:18:56.070Z,101490.04
2018-12-08T02:21:59.730Z,101494.92
2018-12-08T02:25:03.842Z,101487.34
2018-12-08T02:28:07.384Z,101492.30
2018-12-08T02:31:11.350Z,101482.70
2018-12-08T02:34:15.021Z,101491.93
2018-12-08T02:37:18.911Z,101499.45
2018-12-08T02:40:22.537Z,101498.29
2018-12-08T02:43:26.095Z,101501.62
2018-12-08T02:46:29.725Z,101497.61
2018-12-08T02:49:33.338Z,101499.84
2018-12-08T02:52:36.927Z,101503.82
2018-12-08T02:55:40.535Z,101512.42
2018-12-08T02:58:44.050Z,101519.41
2018-12-08T03:01:47.554Z,101532.31
2018-12-08T03:04:51.118Z,101532.36
2018-12-08T03:07:54.708Z,101542.97
2018-12-08T03:10:58.291Z,101535.57
2018-12-08T03:14:01.796Z,101538.16
2018-12-08T03:17:05.362Z,101530.83
2018-12-08T03:20:08.964Z,101540.95
2018-12-08T03:23:12.614Z,101534.46
2018-12-08T03:26:16.123Z,101532.69
2018-12-08T03:29:19.670Z,101533.33
2018-12-08T03:32:23.374Z,101531.54
2018-12-08T03:35:27.088Z,101518.32
2018-12-08T03:38:30.662Z,101529.57
2018-12-08T03:41:34.177Z,101526.16
2018-12-08T03:44:37.713Z,101529.14
2018-12-08T03:47:41.358Z,101524.05
2018-12-08T03:50:44.827Z,101528.19
2018-12-08T03:53:48.348Z,101527.23
2018-12-08T03:56:51.937Z,101523.91
2018-12-08T03:59:55.549Z,101527.91
2018-12-08T04:02:59.184Z,101535.53
2018-12-08T04:06:02.822Z,101532.86
2018-12-08T04:09:06.506Z,101536.91
2018-12-08T04:12:10.214Z,101533.30
2018-12-08T04:15:13.806Z,101535.59
2018-12-08T04:18:17.553Z,101542.18
2018-12-08T04:21:21.236Z,101541.80
2018-12-08T04:24:24.765Z,101540.30
2018-12-08T04:27:31.210Z,101534.71
2018-12-08T04:30:34.722Z,101540.47
2018-12-08T04:33:38.160Z,101534.55
2018-12-08T04:36:41.784Z,101533.53
2018-12-08T04:39:45.271Z,101532.13
2018-12-08T04:42:49.058Z,101525.79
2018-12-08T04:45:52.578Z,101527.91
2018-12-08T04:48:56.136Z,101526.20
2018-12-08T04:51:59.721Z,101523.42
2018-12-08T04:55:03.273Z,101530.43
2018-12-08T04:58:06.901Z,101523.56
2018-12-08T05:01:10.533Z,101530.68
2018-12-08T05:04:14.061Z,101544.04
2018-12-08T05:07:17.643Z,101539.77
2018-12-08T05:10:21.188Z,101547.42
2018-12-08T05:13:25.003Z,101559.21
2018-12-08T05:16:28.472Z,101558.83
2018-12-08T05:19:31.937Z,101562.88
2018-12-08T05:22:35.547Z,101563.20
2018-12-08T05:25:39.146Z,101560.98
2018-12-08T05:28:42.816Z,101556.21
2018-12-08T05:31:46.321Z,101562.44
2018-12-08T05:34:50.016Z,101559.02
2018-12-08T05:37:53.527Z,101557.77
2018-12-08T05:40:57.116Z,101567.74
2018-12-08T05:44:00.936Z,101553.22
2018-12-08T05:47:04.503Z,101558.98
2018-12-08T05:50:08.760Z,101571.59
2018-12-08T05:53:12.344Z,101570.42
2018-12-08T05:56:15.875Z,101582.38
2018-12-08T05:59:19.403Z,101562.79
2018-12-08T06:02:22.936Z,101563.31
2018-12-08T06:05:26.589Z,101565.47
2018-12-08T06:08:30.175Z,101559.47
2018-12-08T06:11:33.682Z,101559.48
2018-12-08T06:14:37.251Z,101561.09
2018-12-08T06:17:40.803Z,101552.84
2018-12-08T06:20:44.301Z,101547.14
2018-12-08T06:23:47.837Z,101551.49
2018-12-08T06:27:03.377Z,101550.54
2018-12-08T06:30:08.757Z,101543.15
2018-12-08T06:33:12.366Z,101548.25
2018-12-08T06:36:15.933Z,101539.59
2018-12-08T06:39:19.745Z,101548.84
2018-12-08T06:42:23.337Z,101538.86
2018-12-08T06:45:27.278Z,101534.06
2018-12-08T06:48:30.769Z,101519.73
2018-12-08T06:51:34.488Z,101511.66
2018-12-08T06:54:38.016Z,101524.81
2018-12-08T06:57:41.543Z,101541.75
2018-12-08T07:00:45.124Z,101527.78
2018-12-08T07:03:48.908Z,101534.94
2018-12-08T07:06:52.331Z,101518.66
2018-12-08T07:09:55.705Z,101520.53
2018-12-08T07:12:59.320Z,101517.19
2018-12-08T07:16:02.801Z,101510.98
2018-12-08T07:19:06.276Z,101515.73
2018-12-08T07:22:09.940Z,101514.10
2018-12-08T07:25:13.424Z,101507.45
2018-12-08T07:28:17.365Z,101515.81
2018-12-08T07:31:21.028Z,101506.25
2018-12-08T07:34:24.749Z,101504.51
2018-12-08T07:37:28.304Z,101514.68
2018-12-08T07:40:32.092Z,101521.08
2018-12-08T07:43:35.988Z,101522.59
2018-12-08T07:46:39.690Z,101506.34
2018-12-08T07:49:43.348Z,101507.49
2018-12-08T07:52:47.026Z,101501.05
2018-12-08T07:55:51.678Z,101506.24
2018-12-08T07:58:56.209Z,101507.22
2018-12-08T08:02:00.418Z,101504.31
2018-12-08T08:05:04.023Z,101492.59
2018-12-08T08:08:08.712Z,101502.89
2018-12-08T08:11:12.488Z,101497.82
2018-12-08T08:14:16.137Z,101497.51
2018-12-08T08:17:19.805Z,101491.99
2018-12-08T08:20:23.530Z,101494.52
2018-12-08T08:23:27.101Z,101485.58
2018-12-08T08:26:30.839Z,101487.73
2018-12-08T08:29:34.638Z,101471.26
2018-12-08T08:32:38.347Z,101471.62
2018-12-08T08:35:41.802Z,101478.43
2018-12-08T08:38:45.466Z,101469.77
2018-12-08T08:41:49.105Z,101463.43
2018-12-08T08:44:52.685Z,101454.32
2018-12-08T08:47:56.565Z,101448.42
2018-12-08T08:51:00.205Z,101443.35
2018-12-08T08:54:03.965Z,101440.76
2018-12-08T08:57:07.753Z,101435.76
2018-12-08T09:00:11.656Z,101444.60
2018-12-08T09:03:15.146Z,101454.36
2018-12-08T09:06:18.708Z,101430.28
2018-12-08T09:09:22.267Z,101448.30
2018-12-08T09:12:25.817Z,101445.06
2018-12-08T09:15:29.452Z,101430.20
2018-12-08T09:18:32.965Z,101434.66
2018-12-08T09:21:36.549Z,101459.37
2018-12-08T09:24:40.108Z,101433.40
2018-12-08T09:27:43.620Z,101428.05
2018-12-08T09:30:47.204Z,101434.20
2018-12-08T09:33:50.870Z,101427.66
2018-12-08T09:36:55.384Z,101436.64
2018-12-08T09:39:59.079Z,101447.82
2018-12-08T09:43:02.546Z,101441.61
2018-12-08T09:46:06.045Z,101444.34
2018-12-08T09:49:09.595Z,101441.58
2018-12-08T09:52:13.087Z,101449.35
2018-12-08T09:55:16.891Z,101440.18
2018-12-08T09:58:20.874Z,101442.88
2018-12-08T10:01:24.446Z,101446.06
2018-12-08T10:04:28.058Z,101452.89
2018-12-08T10:07:32.763Z,101447.99
2018-12-08T10:10:38.751Z,101454.44
2018-12-08T10:13:44.339Z,101431.59
2018-12-08T10:16:47.864Z,101419.06
2018-12-08T10:19:51.214Z,101417.32
2018-12-08T10:22:54.927Z,101413.79
2018-12-08T10:25:58.431Z,101420.21
2018-12-08T10:29:02.067Z,101425.52
2018-12-08T10:32:05.805Z,101424.94
2018-12-08T10:35:11.392Z,101417.24
2018-12-08T10:38:15.129Z,101410.02
2018-12-08T10:41:18.580Z,101395.08
2018-12-08T10:44:22.048Z,101385.28
2018-12-08T10:47:25.672Z,101379.33
2018-12-08T10:50:29.243Z,101383.78
2018-12-08T10:53:33.804Z,101405.10
2018-12-08T10:56:37.765Z,101398.94
2018-12-08T10:59:41.255Z,101409.29
2018-12-08T11:02:52.472Z,101412.96
2018-12-08T11:05:56.022Z,101398.55
2018-12-08T11:08:59.620Z,101405.30
2018-12-08T11:12:03.340Z,101405.89
2018-12-08T11:15:07.476Z,101407.66
2018-12-08T11:18:11.185Z,101405.65
2018-12-08T11:21:15.125Z,101407.96
2018-12-08T11:24:19.315Z,101407.21
2018-12-08T11:27:22.867Z,101410.03
2018-12-08T11:30:26.284Z,101405.75
2018-12-08T11:33:31.966Z,101413.31
2018-12-08T11:36:35.472Z,101405.42
2018-12-08T11:39:38.944Z,101406.74
2018-12-08T11:42:42.503Z,101407.59
2018-12-08T11:45:46.995Z,101406.23
2018-12-08T11:48:50.479Z,101404.86
2018-12-08T11:51:54.030Z,101400.15
2018-12-08T11:54:57.579Z,101400.38
2018-12-08T11:58:01.087Z,101399.98
2018-12-08T12:01:04.573Z,101383.36
2018-12-08T12:04:08.006Z,101399.14
2018-12-08T12:07:11.637Z,101400.69
2018-12-08T12:10:15.231Z,101398.43
2018-12-08T12:13:18.813Z,101406.91
2018-12-08T12:16:22.295Z,101395.54
2018-12-08T12:19:25.691Z,101394.25
2018-12-08T12:22:29.095Z,101385.98
2018-12-08T12:25:32.798Z,101391.71
2018-12-08T12:28:36.293Z,101387.69
2018-12-08T12:31:39.914Z,101385.71
2018-12-08T12:34:43.430Z,101394.35
2018-12-08T12:37:46.889Z,101390.92
2018-12-08T12:40:50.317Z,101388.71
2018-12-08T12:43:53.801Z,101380.75
2018-12-08T12:46:57.318Z,101385.03
2018-12-08T12:50:00.689Z,101384.59
2018-12-08T12:53:04.209Z,101376.80
2018-12-08T12:56:08.663Z,101378.78
2018-12-08T12:59:12.038Z,101376.63
2018-12-08T13:02:15.612Z,101380.03
2018-12-08T13:05:19.150Z,101372.79
2018-12-08T13:08:22.671Z,101377.27
2018-12-08T13:11:26.062Z,101369.95
2018-12-08T13:14:29.580Z,101370.46
2018-12-08T13:17:33.047Z,101368.07
2018-12-08T13:20:36.550Z,101364.76
2018-12-08T13:23:40.200Z,101357.45
2018-12-08T13:26:43.584Z,101354.22
2018-12-08T13:29:47.059Z,101353.19
2018-12-08T13:32:50.587Z,101350.29
2018-12-08T13:35:56.366Z,101348.36
2018-12-08T13:38:59.915Z,101353.19
2018-12-08T13:42:03.537Z,101346.82
2018-12-08T13:45:16.784Z,101351.81
2018-12-08T13:48:22.075Z,101357.72
2018-12-08T13:51:25.810Z,101351.87
2018-12-08T13:54:54.807Z,101363.18
2018-12-08T13:57:58.513Z,101364.07
2018-12-08T14:01:02.268Z,101359.56
2018-12-08T14:04:05.790Z,101362.35
2018-12-08T14:07:09.253Z,101359.69
2018-12-08T14:10:12.969Z,101364.68
2018-12-08T14:13:16.536Z,101356.65
2018-12-08T14:16:20.402Z,101359.32
2018-12-08T14:19:23.986Z,101356.90
2018-12-08T14:22:27.655Z,101369.06
2018-12-08T14:25:31.283Z,101364.35
2018-12-08T14:28:34.817Z,101366.76
2018-12-08T14:31:38.444Z,101368.27
2018-12-08T14:34:42.099Z,101364.87
2018-12-08T14:37:47.156Z,101361.24
2018-12-08T14:40:50.716Z,101358.96
2018-12-08T14:43:54.305Z,101354.74
2018-12-08T14:46:58.233Z,101345.75
2018-12-08T14:50:02.316Z,101344.99
2018-12-08T14:53:05.987Z,101336.35
2018-12-08T14:56:09.658Z,101322.46
2018-12-08T14:59:13.363Z,101328.43
2018-12-08T15:02:16.974Z,101327.74
2018-12-08T15:05:20.607Z,101335.50
2018-12-08T15:08:24.295Z,101332.48
2018-12-08T15:11:28.005Z,101342.61
2018-12-08T15:14:31.666Z,101333.74
2018-12-08T15:17:35.293Z,101339.52
2018-12-08T15:20:38.914Z,101324.82
2018-12-08T15:23:42.722Z,101337.01
2018-12-08T15:26:46.320Z,101344.01
2018-12-08T15:29:49.836Z,101358.77
2018-12-08T15:32:53.446Z,101360.03
2018-12-08T15:35:57.132Z,101358.11
2018-12-08T15:39:00.646Z,101371.71
2018-12-08T15:42:04.157Z,101360.14
2018-12-08T15:45:09.945Z,101357.05
2018-12-08T15:48:14.467Z,101356.71
2018-12-08T15:51:18.065Z,101360.63
2018-12-08T15:54:21.552Z,101357.54
2018-12-08T15:57:25.069Z,101350.30
2018-12-08T16:00:28.653Z,101350.80
2018-12-08T16:03:33.427Z,101350.60
2018-12-08T16:06:36.953Z,101351.33
2018-12-08T16:09:40.526Z,101356.48
2018-12-08T16:12:44.500Z,101342.00
2018-12-08T16:15:47.908Z,101347.39
2018-12-08T16:18:52.809Z,101336.00
2018-12-08T16:21:55.093Z,101340.53
2018-12-08T16:24:58.569Z,101333.87
2018-12-08T16:28:03.200Z,101323.56
2018-12-08T16:31:06.748Z,101307.91
2018-12-08T16:34:10.260Z,101311.58
2018-12-08T16:37:14.263Z,101313.98
2018-12-08T16:40:17.756Z,101306.44
2018-12-08T16:43:21.343Z,101310.04
2018-12-08T16:46:24.874Z,101300.09
2018-12-08T16:49:28.533Z,101293.64
2018-12-08T16:52:32.108Z,101293.15
2018-12-08T16:55:35.644Z,101289.76
2018-12-08T16:58:39.323Z,101295.73
2018-12-08T17:01:53.109Z,101286.17
2018-12-08T17:04:56.845Z,101271.16
2018-12-08T17:08:00.377Z,101270.80
2018-12-08T17:11:04.235Z,101264.27
2018-12-08T17:14:07.855Z,101269.23
2018-12-08T17:17:12.369Z,101261.28
2018-12-08T17:20:15.910Z,101254.25
2018-12-08T17:23:19.467Z,101256.11
2018-12-08T17:26:23.109Z,101246.74
2018-12-08T17:29:26.464Z,101246.57
2018-12-08T17:32:29.942Z,101243.30
2018-12-08T17:35:33.467Z,101229.02
2018-12-08T17:38:36.990Z,101222.83
2018-12-08T17:41:40.424Z,101234.15
2018-12-08T17:44:43.908Z,101222.16
2018-12-08T17:47:47.365Z,101214.91
2018-12-08T17:50:50.954Z,101207.45
2018-12-08T17:53:54.572Z,101207.31
2018-12-08T17:56:58.166Z,101204.56
2018-12-08T18:00:01.767Z,101194.09
2018-12-08T18:03:05.548Z,101189.78
2018-12-08T18:06:09.050Z,101182.81
2018-12-08T18:09:13.550Z,101176.25
2018-12-08T18:12:17.087Z,101162.85
2018-12-08T18:15:20.504Z,101156.02
2018-12-08T18:18:23.975Z,101148.90
2018-12-08T18:21:27.471Z,101151.01
2018-12-08T18:24:31.097Z,101138.56
2018-12-08T18:27:34.564Z,101132.57
2018-12-08T18:30:38.083Z,101123.05
2018-12-08T18:33:41.585Z,101130.11
2018-12-08T18:36:45.200Z,101120.39
2018-12-08T18:39:48.768Z,101104.49
2018-12-08T18:42:52.493Z,101103.52
2018-12-08T18:45:55.926Z,101120.53
2018-12-08T18:48:59.576Z,101099.44
2018-12-08T18:52:03.288Z,101087.80
2018-12-08T18:55:07.106Z,101079.38
2018-12-08T18:58:10.907Z,101075.16
2018-12-08T19:01:14.504Z,101061.25
2018-12-08T19:04:18.161Z,101054.03
2018-12-08T19:07:21.766Z,101049.64
2018-12-08T19:10:25.369Z,101041.07
2018-12-08T19:13:28.880Z,101027.39
2018-12-08T19:16:32.509Z,101012.55
2018-12-08T19:19:36.059Z,101023.18
2018-12-08T19:22:39.735Z,101016.42
2018-12-08T19:25:43.266Z,101008.04
2018-12-08T19:28:46.935Z,101001.55
2018-12-08T19:31:50.546Z,100992.09
2018-12-08T19:34:54.142Z,100984.84
2018-12-08T19:37:57.762Z,100987.15
2018-12-08T19:41:01.379Z,100992.24
2018-12-08T19:44:05.069Z,100984.36
2018-12-08T19:47:08.769Z,100979.17
2018-12-08T19:50:13.117Z,100957.62
2018-12-08T19:53:16.766Z,100964.79
2018-12-08T19:56:20.403Z,100951.41
2018-12-08T19:59:23.966Z,100946.28
2018-12-08T20:02:27.470Z,100931.00
2018-12-08T20:05:31.381Z,100935.36
2018-12-08T20:08:34.912Z,100916.56
2018-12-08T20:11:38.668Z,100923.54
2018-12-08T20:14:42.404Z,100912.20
2018-12-08T20:17:45.977Z,100912.45
2018-12-08T20:20:49.904Z,100897.40
2018-12-08T20:23:53.707Z,100891.82
2018-12-08T20:26:57.386Z,100879.38
2018-12-08T20:30:01.069Z,100860.52
2018-12-08T20:33:04.660Z,100859.26
2018-12-08T20:36:08.158Z,100865.90
2018-12-08T20:39:11.663Z,100846.93
2018-12-08T20:42:15.331Z,100836.23
2018-12-08T20:45:18.920Z,100829.62
2018-12-08T20:48:22.435Z,100835.12
2018-12-08T20:51:25.882Z,100819.89
2018-12-08T20:54:29.459Z,100807.04
2018-12-08T20:57:33.056Z,100788.58
2018-12-08T21:00:36.765Z,100780.80
2018-12-08T21:03:40.283Z,100764.17
2018-12-08T21:06:43.861Z,100760.12
2018-12-08T21:09:47.491Z,100752.73
2018-12-08T21:12:50.994Z,100743.12
2018-12-08T21:15:54.495Z,100737.04
2018-12-08T21:18:58.091Z,100726.97
2018-12-08T21:22:01.673Z,100723.95
2018-12-08T21:25:05.305Z,100713.81
2018-12-08T21:28:08.989Z,100708.98
2018-12-08T21:31:12.567Z,100691.94
2018-12-08T21:34:16.034Z,100667.82
2018-12-08T21:37:19.568Z,100657.13
2018-12-08T21:40:30.951Z,100637.27
2018-12-08T21:43:34.552Z,100635.90
2018-12-08T21:46:38.151Z,100643.68
2018-12-08T21:49:41.883Z,100630.91
2018-12-08T21:52:46.391Z,100632.17
2018-12-08T21:55:49.956Z,100634.96
2018-12-08T21:58:53.544Z,100640.14
2018-12-08T22:01:57.071Z,100617.72
2018-12-08T22:05:00.683Z,100589.07
2018-12-08T22:08:04.485Z,100598.16
2018-12-08T22:11:08.527Z,100573.34
2018-12-08T22:14:12.005Z,100554.65
2018-12-08T22:17:15.712Z,100561.21
2018-12-08T22:20:19.361Z,100544.05
2018-12-08T22:23:23.008Z,100534.33
2018-12-08T22:26:26.619Z,100534.98
2018-12-08T22:29:30.269Z,100522.00
2018-12-08T22:32:33.927Z,100518.45
2018-12-08T22:35:37.578Z,100513.05
2018-12-08T22:38:41.138Z,100516.58
2018-12-08T22:41:44.578Z,100497.10
2018-12-08T22:44:48.140Z,100495.73
2018-12-08T22:47:51.693Z,100490.99
2018-12-08T22:50:57.050Z,100477.99
2018-12-08T22:54:01.881Z,100473.23
2018-12-08T22:57:05.839Z,100453.51
2018-12-08T23:00:18.773Z,100453.20
2018-12-08T23:03:22.251Z,100444.19
2018-12-08T23:06:25.609Z,100440.51
2018-12-08T23:09:29.193Z,100436.82
2018-12-08T23:12:32.780Z,100426.64
2018-12-08T23:15:36.194Z,100419.51
2018-12-08T23:18:39.796Z,100428.34
2018-12-08T23:21:43.707Z,100428.81
2018-12-08T23:24:47.339Z,100422.07
2018-12-08T23:27:50.870Z,100434.50
2018-12-08T23:30:54.393Z,100442.61
2018-12-08T23:33:58.898Z,100433.47
2018-12-08T23:37:02.320Z,100433.56
2018-12-08T23:40:06.608Z,100421.99
2018-12-08T23:43:10.070Z,100415.88
2018-12-08T23:46:14.500Z,100422.07
2018-12-08T23:49:18.192Z,100424.70
2018-12-08T23:52:21.680Z,100416.78
2018-12-08T23:55:25.221Z,100405.62
2018-12-08T23:58:30.705Z,100403.30
